Bartlett, Illinois
Current Conditions -  °F | °C
As of 5:52 AM on Tuesday 27 Jan 2015 (Local Time) from KDPA Reporting Station
Haze Haze  
Wind Chill: 20°   Ceiling: 1800
Heat Index: 27°   Visibility: 5mi
Dew Point: 24°   Wind: 6mph
Humidity: 89%   Direction: 360°N
Pressure: 30.02"   Gusts: NA
Location:  41.99°N, 88.18°W
Report Text: KDPA 271152Z 36005KT 5SM BR OVC018 M03/M04 A3002 RMK AO2 SLP175 60000 70002 T10281044 11028 21033 53023
Loading
Personal Weather Stations






























Interactive Weather Map New forecast layout! Learn more

10-Day Weather Forecast

Advertisements
Track Severe Weather on mobile